Time;durP1;ratioP1;P1;durP2;ratioP2;P2;SDS_P1;SDS_P2;PMS_P1;PMS_P2;Temp;Humidity;BMP_temperature;BMP_pressure;BME280_temperature;BME280_humidity;BME280_pressure;Samples;Min_cycle;Max_cycle;Signal;HPM_P1;HPM_P2
2022/01/03 00:01:48;;;;;;;29.80;15.98;;;;;;;5.67;100.00;97672.06;4910897;29;20031;-81
2022/01/03 00:04:15;;;;;;;33.65;16.85;;;;;;;5.80;100.00;97689.22;4926992;29;20143;-82
2022/01/03 00:06:41;;;;;;;36.22;19.15;;;;;;;5.82;100.00;97691.78;4904510;29;20039;-81
2022/01/03 00:09:07;;;;;;;38.53;20.02;;;;;;;5.73;100.00;97665.63;4924657;29;20094;-81
2022/01/03 00:11:35;;;;;;;46.53;23.98;;;;;;;5.74;100.00;97673.53;4909625;29;20039;-81
2022/01/03 00:14:01;;;;;;;85.45;37.78;;;;;;;5.76;100.00;97665.50;4901357;29;20147;-80
2022/01/03 00:16:27;;;;;;;43.00;21.05;;;;;;;5.88;100.00;97668.53;4936668;29;20066;-79
2022/01/03 00:18:53;;;;;;;61.95;29.25;;;;;;;5.82;100.00;97662.59;4931942;29;20055;-80
2022/01/03 00:21:19;;;;;;;107.93;43.97;;;;;;;5.73;100.00;97668.28;4930601;29;20046;-81
2022/01/03 00:23:53;;;;;;;214.95;75.88;;;;;;;5.62;100.00;97655.47;4930444;29;20047;-82
2022/01/03 00:26:30;;;;;;;90.75;36.15;;;;;;;5.65;100.00;97665.09;4928447;29;20118;-81
2022/01/03 00:29:15;;;;;;;52.38;23.85;;;;;;;5.85;100.00;97654.50;4929827;29;20046;-80
2022/01/03 00:31:42;;;;;;;76.97;30.95;;;;;;;5.80;100.00;97652.06;4929248;29;20051;-80
2022/01/03 00:34:10;;;;;;;78.35;33.40;;;;;;;5.74;100.00;97633.72;4925862;29;20534;-81
2022/01/03 00:36:36;;;;;;;61.92;26.85;;;;;;;5.76;100.00;97652.22;4921405;29;20480;-81
2022/01/03 00:39:04;;;;;;;56.63;26.92;;;;;;;5.69;100.00;97643.66;4907080;29;20043;-81
2022/01/03 00:41:29;;;;;;;58.85;26.67;;;;;;;5.61;100.00;97635.16;4912578;29;20133;-80
2022/01/03 00:43:55;;;;;;;122.05;47.35;;;;;;;5.66;100.00;97643.78;4913026;29;20068;-80
2022/01/03 00:46:21;;;;;;;62.92;28.83;;;;;;;5.62;100.00;97613.00;4932987;29;20035;-82
2022/01/03 00:48:47;;;;;;;48.88;22.48;;;;;;;5.82;100.00;97617.47;4915814;29;20047;-82
2022/01/03 00:51:17;;;;;;;38.70;17.70;;;;;;;5.79;100.00;97601.69;4912815;29;20419;-81
2022/01/03 00:53:42;;;;;;;50.63;24.55;;;;;;;5.84;100.00;97619.16;4926757;28;20098;-82
2022/01/03 00:56:19;;;;;;;46.22;22.05;;;;;;;5.74;100.00;97601.03;4908039;29;20039;-80
2022/01/03 00:58:54;;;;;;;42.72;22.20;;;;;;;5.61;100.00;97608.63;4912786;29;20424;-81
2022/01/03 01:01:22;;;;;;;38.45;20.45;;;;;;;5.35;100.00;97606.19;4934482;29;20042;-80
2022/01/03 01:03:49;;;;;;;37.05;19.45;;;;;;;5.38;100.00;97622.81;4913850;29;20046;-80
2022/01/03 01:06:16;;;;;;;36.08;20.00;;;;;;;5.34;100.00;97609.75;4928050;29;20131;-81
2022/01/03 01:08:44;;;;;;;32.42;17.13;;;;;;;5.42;100.00;97623.56;4921085;29;20040;-82
2022/01/03 01:11:10;;;;;;;27.92;15.43;;;;;;;5.31;100.00;97621.34;4910060;29;20526;-81
2022/01/03 01:13:39;;;;;;;28.25;13.57;;;;;;;5.14;100.00;97618.50;4913609;29;20032;-81
2022/01/03 01:16:06;;;;;;;24.70;13.07;;;;;;;4.97;100.00;97620.06;4933035;29;20039;-81
2022/01/03 01:18:36;;;;;;;20.48;11.40;;;;;;;4.89;100.00;97623.88;4922136;29;20389;-81
2022/01/03 01:21:03;;;;;;;24.25;12.48;;;;;;;4.88;100.00;97616.88;4923149;29;20039;-82
2022/01/03 01:23:29;;;;;;;22.67;12.38;;;;;;;4.89;100.00;97613.28;4924129;29;20036;-82
2022/01/03 01:28:20;;;;;;;30.75;16.13;;;;;;;4.77;100.00;97608.44;4937376;29;20031;-81
2022/01/03 01:30:47;;;;;;;25.73;14.38;;;;;;;4.74;100.00;97615.63;4916218;29;20171;-81
2022/01/03 01:33:15;;;;;;;21.55;12.35;;;;;;;4.81;100.00;97603.91;4919302;29;20131;-81
2022/01/03 01:35:45;;;;;;;22.30;11.90;;;;;;;4.78;100.00;97610.19;4933858;29;20035;-81
2022/01/03 01:38:15;;;;;;;20.17;11.68;;;;;;;4.87;100.00;97615.13;4928593;29;20050;-81
2022/01/03 01:40:52;;;;;;;20.48;11.75;;;;;;;4.85;100.00;97600.22;4922667;29;20047;-80
2022/01/03 01:43:45;;;;;;;21.08;10.45;;;;;;;4.98;100.00;97613.88;4947594;29;20043;-81
2022/01/03 01:46:16;;;;;;;14.75;8.65;;;;;;;5.10;100.00;97584.22;4910911;29;20039;-80
2022/01/03 01:48:44;;;;;;;14.82;8.65;;;;;;;5.20;100.00;97589.09;4920767;29;20043;-81
2022/01/03 01:51:12;;;;;;;18.15;9.45;;;;;;;5.35;100.00;97592.94;4934837;29;20408;-81
2022/01/03 01:53:44;;;;;;;17.23;10.23;;;;;;;5.30;100.00;97586.94;4916828;29;20093;-81
2022/01/03 01:56:19;;;;;;;15.57;9.40;;;;;;;5.33;100.00;97595.63;4934596;29;20403;-81
2022/01/03 01:59:14;;;;;;;16.13;10.18;;;;;;;5.23;100.00;97590.78;4928302;29;20048;-81
2022/01/03 02:01:55;;;;;;;14.18;8.52;;;;;;;5.17;100.00;97602.47;4941654;29;20046;-81
2022/01/03 02:04:43;;;;;;;20.02;12.10;;;;;;;5.16;100.00;97607.84;4912473;29;20570;-81
2022/01/03 02:07:47;;;;;;;13.70;8.52;;;;;;;5.30;100.00;97585.16;4943897;28;20047;-82
2022/01/03 02:10:16;;;;;;;14.77;9.00;;;;;;;5.19;100.00;97586.50;4930663;29;20419;-82
2022/01/03 02:12:46;;;;;;;19.27;10.65;;;;;;;5.18;100.00;97582.13;4925934;28;20105;-82
2022/01/03 02:15:15;;;;;;;26.95;14.35;;;;;;;5.32;100.00;97575.31;4907370;29;20043;-82
2022/01/03 02:17:44;;;;;;;25.60;13.13;;;;;;;5.44;100.00;97571.34;4915417;29;20035;-80
2022/01/03 02:20:14;;;;;;;23.67;13.40;;;;;;;5.53;100.00;97570.94;4933270;29;20118;-81
2022/01/03 02:22:41;;;;;;;33.35;16.13;;;;;;;5.52;100.00;97544.47;4924916;29;20548;-80
2022/01/03 02:25:09;;;;;;;27.52;12.75;;;;;;;5.72;100.00;97548.00;4936962;29;20066;-81
2022/01/03 02:27:35;;;;;;;23.98;13.27;;;;;;;5.84;100.00;97534.22;4932286;29;20035;-82
2022/01/03 02:30:03;;;;;;;29.58;15.85;;;;;;;5.96;100.00;97530.22;4931996;29;20150;-80
2022/01/03 02:32:30;;;;;;;33.85;16.67;;;;;;;6.00;100.00;97522.03;4931888;29;20495;-81
2022/01/03 02:34:55;;;;;;;18.80;10.32;;;;;;;6.19;100.00;97523.84;4910925;29;20064;-81
2022/01/03 02:37:22;;;;;;;26.25;14.02;;;;;;;6.39;100.00;97532.66;4926783;29;20039;-81
2022/01/03 02:39:47;;;;;;;20.92;11.23;;;;;;;6.56;100.00;97515.94;4921269;29;20105;-81
2022/01/03 02:42:13;;;;;;;15.82;8.50;;;;;;;6.64;100.00;97508.47;4910902;29;20473;-81
2022/01/03 02:44:42;;;;;;;20.02;11.48;;;;;;;7.12;98.46;97509.72;4902107;29;20036;-80
2022/01/03 02:47:08;;;;;;;9.18;5.28;;;;;;;7.49;92.84;97499.84;4924880;29;20028;-82
2022/01/03 02:49:34;;;;;;;16.60;9.45;;;;;;;7.38;93.24;97490.69;4911096;29;20039;-80
2022/01/03 02:51:59;;;;;;;18.65;9.00;;;;;;;7.28;93.58;97490.28;4915263;29;20038;-80
2022/01/03 02:54:25;;;;;;;22.48;11.45;;;;;;;7.18;94.83;97480.16;4928393;29;20405;-82
2022/01/03 02:56:51;;;;;;;23.38;12.70;;;;;;;7.06;96.00;97484.28;4917132;29;20102;-82
2022/01/03 02:59:19;;;;;;;24.42;11.82;;;;;;;7.02;96.54;97502.19;4903137;29;20554;-81
2022/01/03 03:01:46;;;;;;;24.10;11.95;;;;;;;6.91;97.67;97490.34;4933746;29;20039;-81
2022/01/03 03:04:11;;;;;;;19.90;11.18;;;;;;;6.82;98.50;97502.28;4932340;29;20043;-81
2022/01/03 03:06:37;;;;;;;24.20;11.43;;;;;;;6.69;99.49;97493.16;4910939;29;20040;-81
2022/01/03 03:09:05;;;;;;;23.20;11.38;;;;;;;6.61;100.00;97490.03;4917634;29;20499;-81
2022/01/03 03:11:35;;;;;;;22.63;12.27;;;;;;;6.56;100.00;97502.66;4924119;29;20032;-82
2022/01/03 03:14:01;;;;;;;23.45;12.77;;;;;;;6.47;100.00;97490.66;4936639;29;20353;-81
2022/01/03 03:16:27;;;;;;;25.15;11.27;;;;;;;6.55;100.00;97487.66;4907846;29;20040;-82
2022/01/03 03:18:52;;;;;;;23.25;11.95;;;;;;;6.60;100.00;97479.44;4916946;29;20042;-82
2022/01/03 03:21:18;;;;;;;14.73;8.13;;;;;;;6.79;100.00;97483.84;4922019;29;20416;-80
2022/01/03 03:23:44;;;;;;;10.93;5.95;;;;;;;6.60;100.00;97469.69;4907272;29;20074;-82
2022/01/03 03:26:10;;;;;;;9.32;5.55;;;;;;;6.59;100.00;97486.56;4931146;29;20031;-81
2022/01/03 03:28:36;;;;;;;9.70;5.90;;;;;;;6.50;100.00;97479.03;4911110;29;20122;-81
2022/01/03 03:31:03;;;;;;;11.45;6.72;;;;;;;6.53;100.00;97490.38;4932614;29;20126;-81
2022/01/03 03:33:29;;;;;;;10.05;5.70;;;;;;;6.39;100.00;97487.50;4910062;29;20042;-81
2022/01/03 03:35:56;;;;;;;11.57;6.38;;;;;;;6.20;100.00;97499.03;4927389;29;20074;-81
2022/01/03 03:38:25;;;;;;;9.27;5.78;;;;;;;6.20;100.00;97496.38;4932291;28;20151;-81
2022/01/03 03:40:53;;;;;;;12.73;6.93;;;;;;;6.15;100.00;97512.53;4917995;29;20050;-81
2022/01/03 03:43:19;;;;;;;13.23;8.25;;;;;;;6.11;100.00;97495.00;4923860;29;20122;-81
2022/01/03 03:45:45;;;;;;;13.95;7.80;;;;;;;5.99;100.00;97492.91;4912960;29;20127;-81
2022/01/03 03:48:11;;;;;;;33.40;16.52;;;;;;;5.97;100.00;97494.75;4909261;29;20039;-81
2022/01/03 03:50:37;;;;;;;52.80;27.40;;;;;;;5.98;100.00;97484.06;4908095;29;20492;-82
2022/01/03 03:53:03;;;;;;;32.45;18.17;;;;;;;6.06;100.00;97478.41;4922470;29;20067;-81
2022/01/03 03:55:29;;;;;;;38.60;20.75;;;;;;;6.00;100.00;97471.59;4935331;29;20066;-81
2022/01/03 03:57:54;;;;;;;43.22;21.10;;;;;;;6.05;100.00;97474.03;4933258;29;20526;-81
2022/01/03 04:00:20;;;;;;;25.38;12.88;;;;;;;6.11;100.00;97467.59;4913811;29;20043;-82
2022/01/03 04:02:46;;;;;;;40.42;23.02;;;;;;;6.12;100.00;97494.06;4924529;29;20047;-82
2022/01/03 04:05:12;;;;;;;42.35;23.70;;;;;;;6.01;100.00;97491.03;4922516;29;20102;-81
2022/01/03 04:07:38;;;;;;;21.85;13.60;;;;;;;6.06;100.00;97483.72;4916684;29;20130;-81
2022/01/03 04:10:04;;;;;;;24.77;13.85;;;;;;;6.07;100.00;97479.28;4912330;29;20114;-82
2022/01/03 04:12:30;;;;;;;34.40;18.40;;;;;;;6.12;100.00;97498.53;4928095;29;20030;-81
2022/01/03 04:14:56;;;;;;;28.70;17.65;;;;;;;6.04;100.00;97495.34;4917313;29;20031;-82
2022/01/03 04:17:21;;;;;;;28.40;16.33;;;;;;;6.04;100.00;97505.97;4927540;29;20419;-82
2022/01/03 04:19:47;;;;;;;34.55;18.73;;;;;;;5.92;100.00;97496.75;4928768;29;20047;-81
2022/01/03 04:22:12;;;;;;;32.78;19.80;;;;;;;5.81;100.00;97473.31;4907480;29;20048;-81
2022/01/03 04:24:38;;;;;;;30.88;17.17;;;;;;;5.97;100.00;97498.25;4927716;29;20044;-82
2022/01/03 04:27:04;;;;;;;46.75;24.63;;;;;;;5.84;100.00;97494.41;4919793;29;20039;-80
2022/01/03 04:29:29;;;;;;;43.88;25.38;;;;;;;5.73;100.00;97471.91;4915687;29;20039;-81
2022/01/03 04:31:55;;;;;;;50.25;26.08;;;;;;;5.89;100.00;97487.13;4934468;29;20094;-81
2022/01/03 04:34:21;;;;;;;22.33;12.75;;;;;;;6.07;100.00;97495.19;4914656;29;20548;-81
2022/01/03 04:36:46;;;;;;;27.13;15.43;;;;;;;6.26;100.00;97498.75;4913497;29;20067;-81
2022/01/03 04:39:12;;;;;;;10.93;6.90;;;;;;;6.29;100.00;97483.53;4924448;29;20039;-81
2022/01/03 04:41:37;;;;;;;13.15;8.25;;;;;;;6.41;98.88;97485.63;4921894;29;20095;-81
2022/01/03 04:44:06;;;;;;;23.20;11.70;;;;;;;6.38;100.00;97495.53;4924514;29;20492;-81
2022/01/03 04:46:36;;;;;;;19.83;11.52;;;;;;;6.37;100.00;97510.59;4908486;29;20492;-81
2022/01/03 04:49:04;;;;;;;19.50;11.18;;;;;;;6.25;100.00;97504.97;4906139;29;20047;-82
2022/01/03 04:51:30;;;;;;;15.70;8.32;;;;;;;6.26;100.00;97512.91;4925382;29;20135;-81
2022/01/03 04:53:55;;;;;;;12.02;6.95;;;;;;;6.20;100.00;97507.00;4918006;29;20524;-81
2022/01/03 04:56:21;;;;;;;18.73;10.75;;;;;;;6.13;100.00;97521.47;4913562;29;20046;-81
2022/01/03 04:58:46;;;;;;;20.48;11.75;;;;;;;6.05;100.00;97520.97;4906376;29;20067;-81
2022/01/03 05:01:12;;;;;;;25.27;13.73;;;;;;;6.11;100.00;97523.34;4921509;29;20036;-82
2022/01/03 05:03:38;;;;;;;36.67;19.23;;;;;;;6.06;100.00;97528.00;4915246;29;20035;-81
2022/01/03 05:06:04;;;;;;;30.35;15.95;;;;;;;6.05;100.00;97529.78;4918015;29;20071;-81
2022/01/03 05:08:32;;;;;;;28.95;13.77;;;;;;;6.16;100.00;97521.34;4938815;29;20114;-81
2022/01/03 05:11:01;;;;;;;24.13;11.07;;;;;;;6.37;100.00;97515.03;4924314;29;20043;-81
2022/01/03 05:13:31;;;;;;;27.70;15.15;;;;;;;6.35;100.00;97503.63;4917377;29;20043;-81
2022/01/03 05:16:05;;;;;;;33.95;18.08;;;;;;;6.37;100.00;97515.03;4913533;29;20592;-80
2022/01/03 05:18:30;;;;;;;27.60;15.80;;;;;;;6.33;100.00;97503.72;4932921;28;20484;-80
2022/01/03 05:20:56;;;;;;;37.50;20.35;;;;;;;6.28;100.00;97526.09;4921776;29;20062;-81
2022/01/03 05:23:22;;;;;;;39.58;20.60;;;;;;;6.30;100.00;97511.84;4926580;29;20067;-82
2022/01/03 05:25:47;;;;;;;40.20;20.10;;;;;;;6.25;100.00;97491.72;4912182;29;20070;-81
2022/01/03 05:28:13;;;;;;;32.55;17.08;;;;;;;6.32;100.00;97506.44;4907151;29;20039;-82
2022/01/03 05:30:39;;;;;;;20.15;11.40;;;;;;;6.31;100.00;97489.63;4913847;29;20052;-81
2022/01/03 05:33:05;;;;;;;33.00;17.92;;;;;;;6.40;100.00;97493.66;4934247;29;20126;-84
2022/01/03 05:35:31;;;;;;;25.33;12.48;;;;;;;6.34;100.00;97488.63;4909494;29;20412;-82
2022/01/03 05:37:57;;;;;;;35.25;18.05;;;;;;;6.33;100.00;97484.28;4909674;29;20043;-82
2022/01/03 05:40:26;;;;;;;22.17;12.02;;;;;;;6.22;100.00;97499.81;4918712;29;20035;-81
2022/01/03 05:42:52;;;;;;;32.28;16.45;;;;;;;6.30;100.00;97513.63;4908882;29;20514;-81
2022/01/03 05:45:18;;;;;;;38.72;19.75;;;;;;;5.99;100.00;97493.78;4919240;29;20106;-84
2022/01/03 05:47:46;;;;;;;31.80;17.90;;;;;;;6.04;100.00;97516.56;4928518;28;20039;-82
2022/01/03 05:50:13;;;;;;;39.20;19.38;;;;;;;5.90;100.00;97509.25;4933297;29;20078;-81
2022/01/03 05:52:38;;;;;;;46.10;21.15;;;;;;;5.98;100.00;97509.75;4911896;29;20396;-82
2022/01/03 05:55:05;;;;;;;49.05;23.95;;;;;;;5.95;100.00;97523.16;4920042;29;20042;-82
2022/01/03 05:57:32;;;;;;;44.38;25.52;;;;;;;5.89;100.00;97507.50;4914607;29;20042;-81
2022/01/03 05:59:58;;;;;;;29.95;17.55;;;;;;;6.05;100.00;97507.69;4914583;29;20047;-81
2022/01/03 06:02:25;;;;;;;67.15;33.25;;;;;;;6.14;100.00;97509.94;4934636;28;20043;-82
2022/01/03 06:04:57;;;;;;;38.72;22.48;;;;;;;6.20;100.00;97507.00;4933417;29;20566;-82
2022/01/03 06:07:23;;;;;;;52.28;27.23;;;;;;;6.12;100.00;97504.66;4919624;29;20098;-81
2022/01/03 06:09:49;;;;;;;44.45;23.85;;;;;;;6.31;99.60;97512.66;4924059;29;20488;-81
2022/01/03 06:12:17;;;;;;;44.03;24.08;;;;;;;6.24;100.00;97503.28;4910561;29;20043;-83
2022/01/03 06:14:46;;;;;;;40.60;20.70;;;;;;;6.31;100.00;97510.00;4913597;29;20483;-83
2022/01/03 06:17:12;;;;;;;28.85;16.13;;;;;;;6.39;100.00;97515.84;4928209;29;20032;-86
2022/01/03 06:19:38;;;;;;;27.17;14.85;;;;;;;6.40;100.00;97505.16;4929850;29;20514;-80
2022/01/03 06:22:08;;;;;;;31.58;14.07;;;;;;;6.49;99.90;97514.50;4907920;29;20039;-87
2022/01/03 06:24:38;;;;;;;68.35;34.42;;;;;;;6.52;98.42;97540.94;4923423;29;20102;-83
2022/01/03 06:27:04;;;;;;;66.63;34.75;;;;;;;6.73;96.23;97534.63;4910669;29;20056;-81
2022/01/03 06:29:31;;;;;;;76.97;41.00;;;;;;;6.95;94.34;97527.34;4926371;29;20476;-83
2022/01/03 06:31:57;;;;;;;35.38;17.95;;;;;;;7.24;91.89;97517.09;4929188;29;20062;-83
2022/01/03 06:34:23;;;;;;;52.75;29.08;;;;;;;7.48;91.16;97545.13;4915252;29;20050;-82
2022/01/03 06:36:48;;;;;;;16.63;8.40;;;;;;;7.69;87.99;97541.41;4931722;29;20047;-80
2022/01/03 06:39:14;;;;;;;60.63;29.45;;;;;;;7.96;86.97;97548.00;4914333;29;20585;-82
2022/01/03 06:41:40;;;;;;;14.73;8.95;;;;;;;8.19;83.50;97541.47;4925651;29;20051;-83
2022/01/03 06:44:06;;;;;;;76.18;37.28;;;;;;;8.39;83.19;97541.31;4929021;29;20481;-83
2022/01/03 06:46:32;;;;;;;95.00;40.50;;;;;;;8.41;83.18;97522.56;4923264;29;20050;-82
2022/01/03 06:49:00;;;;;;;46.53;26.00;;;;;;;8.46;81.31;97521.38;4933378;29;20494;-83
2022/01/03 06:51:31;;;;;;;28.85;13.77;;;;;;;9.39;74.87;97521.47;4926778;29;20511;-82
2022/01/03 06:53:57;;;;;;;38.58;20.25;;;;;;;10.90;70.26;97520.25;4926356;29;20081;-82
2022/01/03 06:56:22;;;;;;;49.05;24.90;;;;;;;12.66;63.63;97519.06;4923979;29;20515;-82
2022/01/03 06:58:48;;;;;;;32.33;19.55;;;;;;;13.84;58.86;97515.72;4900103;29;20130;-82
2022/01/03 07:01:14;;;;;;;28.23;16.38;;;;;;;14.69;54.38;97504.59;4903499;29;20118;-83
2022/01/03 07:03:39;;;;;;;25.25;15.05;;;;;;;15.82;51.13;97490.84;4914677;29;20043;-83
2022/01/03 07:06:05;;;;;;;24.83;13.07;;;;;;;16.51;49.51;97500.19;4907151;29;20031;-83
2022/01/03 07:08:30;;;;;;;25.83;15.88;;;;;;;16.36;47.96;97480.78;4929397;29;20035;-82
2022/01/03 07:10:56;;;;;;;23.10;13.95;;;;;;;16.53;47.80;97477.44;4905888;29;20432;-83
2022/01/03 07:13:24;;;;;;;54.53;29.35;;;;;;;16.14;48.34;97503.34;4924607;29;20031;-82
2022/01/03 07:21:18;;;;;;;65.97;34.92;;;;;;;18.24;43.94;97479.94;4925844;29;20063;-84
2022/01/03 07:23:43;;;;;;;35.40;19.38;;;;;;;18.33;43.30;97468.22;4904006;29;20044;-83
2022/01/03 07:26:09;;;;;;;41.38;22.63;;;;;;;18.59;43.30;97482.88;4924412;29;20054;-84
2022/01/03 07:28:35;;;;;;;42.20;25.00;;;;;;;19.68;41.74;97466.72;4926718;29;20043;-84
2022/01/03 07:31:00;;;;;;;20.65;8.60;;;;;;;20.61;37.96;97447.19;4916774;29;20054;-81
2022/01/03 07:33:26;;;;;;;16.50;9.38;;;;;;;20.78;38.67;97419.09;4925561;29;20419;-82
2022/01/03 07:35:52;;;;;;;26.40;14.98;;;;;;;21.35;37.60;97449.34;4928074;29;20463;-84
2022/01/03 07:38:18;;;;;;;32.83;19.67;;;;;;;22.34;36.33;97445.59;4913981;29;20419;-84
2022/01/03 07:40:43;;;;;;;22.15;13.98;;;;;;;22.64;36.31;97431.25;4913047;29;20043;-84
2022/01/03 07:43:09;;;;;;;49.83;24.38;;;;;;;22.97;34.82;97445.72;4910456;29;20027;-85
2022/01/03 07:45:34;;;;;;;28.33;16.80;;;;;;;23.07;34.99;97437.34;4910583;29;20043;-84
2022/01/03 07:48:09;;;;;;;18.65;12.00;;;;;;;22.14;34.53;97428.75;4922812;29;20039;-85
2022/01/03 07:50:34;;;;;;;21.23;11.50;;;;;;;21.37;36.83;97450.88;4935168;29;20035;-84
2022/01/03 07:53:00;;;;;;;20.70;10.85;;;;;;;21.84;36.61;97445.69;4907152;29;20078;-82
2022/01/03 07:55:26;;;;;;;17.40;11.40;;;;;;;22.67;35.95;97460.13;4922729;29;20039;-83
2022/01/03 07:57:52;;;;;;;18.88;11.32;;;;;;;23.59;34.07;97451.34;4916349;29;20048;-82
2022/01/03 08:00:18;;;;;;;26.35;13.85;;;;;;;25.00;31.65;97415.19;4922390;29;20039;-82
2022/01/03 08:02:44;;;;;;;15.88;10.13;;;;;;;25.41;32.02;97434.75;4904272;29;20042;-85
2022/01/03 08:05:13;;;;;;;68.72;33.42;;;;;;;25.50;30.05;97408.97;4923312;29;20035;-83
2022/01/03 08:07:46;;;;;;;29.98;17.58;;;;;;;25.41;30.33;97427.34;4929100;29;20043;-85
2022/01/03 08:10:12;;;;;;;30.80;19.08;;;;;;;26.55;30.45;97432.88;4915518;29;20039;-85
2022/01/03 08:12:40;;;;;;;19.20;12.90;;;;;;;27.51;28.94;97428.53;4919339;29;20146;-84
2022/01/03 08:15:07;;;;;;;20.08;13.40;;;;;;;27.73;28.95;97421.88;4924975;29;20047;-84
2022/01/03 08:17:33;;;;;;;28.20;15.05;;;;;;;28.66;27.72;97421.91;4924408;29;20495;-84
2022/01/03 08:19:59;;;;;;;20.50;13.15;;;;;;;28.94;27.18;97410.69;4925803;29;20488;-83
2022/01/03 08:22:24;;;;;;;11.13;7.00;;;;;;;29.15;26.58;97420.59;4933451;29;20095;-76
2022/01/03 08:24:50;;;;;;;32.28;20.48;;;;;;;28.07;25.99;97399.78;4937995;29;20050;-78
2022/01/03 08:27:16;;;;;;;13.13;9.20;;;;;;;27.47;28.22;97419.03;4909929;29;20044;-76
2022/01/03 08:29:41;;;;;;;17.85;10.48;;;;;;;28.02;27.48;97416.06;4919012;29;20039;-77
2022/01/03 08:32:07;;;;;;;25.58;15.80;;;;;;;27.86;26.70;97413.69;4912884;29;20055;-79
2022/01/03 08:34:33;;;;;;;19.98;11.82;;;;;;;27.59;27.82;97414.63;4922716;29;20047;-78
2022/01/03 08:37:01;;;;;;;23.65;15.23;;;;;;;27.78;27.32;97411.94;4916529;29;20126;-79
2022/01/03 08:39:27;;;;;;;16.23;11.77;;;;;;;28.38;26.57;97418.47;4915972;29;20071;-78
2022/01/03 08:41:53;;;;;;;14.43;7.60;;;;;;;28.53;26.10;97421.88;4898760;29;20036;-79
2022/01/03 08:44:18;;;;;;;59.88;24.27;;;;;;;29.10;26.92;97421.25;4892819;29;20036;-80
2022/01/03 08:46:46;;;;;;;19.40;6.40;;;;;;;29.81;25.24;97407.50;4905927;29;20039;-79
2022/01/03 08:49:13;;;;;;;18.15;8.98;;;;;;;28.48;26.70;97395.00;4904641;29;20449;-78
2022/01/03 08:51:38;;;;;;;18.67;8.20;;;;;;;27.96;27.01;97403.13;4917101;29;20071;-79
2022/01/03 08:54:04;;;;;;;20.17;9.70;;;;;;;26.81;28.50;97408.44;4917397;29;20039;-80
2022/01/03 08:56:29;;;;;;;26.17;10.95;;;;;;;26.39;29.18;97387.38;4892254;29;20051;-79
2022/01/03 08:58:55;;;;;;;21.15;9.73;;;;;;;27.16;28.64;97387.34;4911008;29;20039;-78
2022/01/03 09:01:20;;;;;;;28.45;10.30;;;;;;;27.75;27.64;97376.63;4885579;29;20103;-79
2022/01/03 09:03:52;;;;;;;19.65;8.82;;;;;;;27.47;28.27;97366.81;4908889;29;20035;-87
2022/01/03 09:06:19;;;;;;;14.35;8.65;;;;;;;28.35;26.96;97356.44;4911826;29;20102;-85
2022/01/03 09:08:45;;;;;;;21.15;12.52;;;;;;;29.41;26.59;97363.50;4921925;29;20039;-91
2022/01/03 09:11:14;;;;;;;35.10;13.60;;;;;;;29.61;26.00;97351.56;4910825;29;20115;-86
2022/01/03 09:13:39;;;;;;;26.90;9.98;;;;;;;30.62;24.72;97322.88;4894070;29;20496;-87
2022/01/03 09:16:07;;;;;;;17.90;10.20;;;;;;;31.00;23.08;97328.28;4911233;29;20110;-85
2022/01/03 09:18:38;;;;;;;25.08;11.32;;;;;;;30.19;24.44;97333.81;4912828;29;20043;-89
2022/01/03 09:21:04;;;;;;;21.48;9.48;;;;;;;28.84;23.98;97325.72;4912079;29;20036;-89
2022/01/03 09:23:34;;;;;;;8.65;4.63;;;;;;;27.71;23.79;97322.25;4903944;29;20031;-76
2022/01/03 09:28:51;;;;;;;6.53;4.03;;;;;;;27.51;24.01;97316.69;4900418;29;20047;-77
2022/01/03 09:31:21;;;;;;;7.10;3.33;;;;;;;27.24;23.36;97307.50;4908479;29;20259;-78
2022/01/03 09:33:46;;;;;;;9.32;3.95;;;;;;;27.77;22.49;97307.69;4911002;29;20044;-77
2022/01/03 09:36:12;;;;;;;12.93;5.95;;;;;;;27.97;22.67;97295.66;4924465;29;20514;-76
2022/01/03 09:38:38;;;;;;;4.20;2.78;;;;;;;27.85;21.64;97280.81;4925181;29;20094;-77
2022/01/03 09:41:05;;;;;;;4.72;3.45;;;;;;;27.15;22.66;97270.28;4935514;29;20475;-78
2022/01/03 09:43:47;;;;;;;7.95;5.40;;;;;;;27.09;24.12;97282.06;4935483;29;20071;-76
2022/01/03 09:46:15;;;;;;;6.60;4.83;;;;;;;27.59;23.14;97271.69;4929267;29;20467;-76
2022/01/03 09:48:42;;;;;;;4.65;3.45;;;;;;;26.77;23.19;97269.00;4914975;29;20492;-76
2022/01/03 09:51:11;;;;;;;6.50;3.90;;;;;;;26.10;24.06;97255.88;4924180;29;20043;-76
2022/01/03 09:53:38;;;;;;;4.68;3.03;;;;;;;25.35;24.64;97259.16;4900624;29;20455;-76
2022/01/03 09:56:04;;;;;;;13.18;3.78;;;;;;;25.37;25.89;97258.97;4900521;29;20126;-77
2022/01/03 09:58:31;;;;;;;8.68;4.45;;;;;;;25.44;25.03;97248.09;4916015;29;20071;-77
2022/01/03 10:00:57;;;;;;;4.25;2.92;;;;;;;24.93;24.92;97245.41;4915814;29;20476;-75
2022/01/03 10:03:22;;;;;;;10.52;4.88;;;;;;;24.38;25.47;97236.84;4921951;29;20037;-78
2022/01/03 10:05:48;;;;;;;6.45;3.80;;;;;;;23.84;25.84;97234.28;4918983;29;20049;-77
2022/01/03 10:08:13;;;;;;;6.95;3.78;;;;;;;23.54;26.87;97233.38;4919050;29;20050;-77
2022/01/03 10:10:40;;;;;;;6.78;4.07;;;;;;;23.15;27.04;97243.53;4935029;29;20047;-76
2022/01/03 10:13:05;;;;;;;14.85;4.75;;;;;;;23.15;27.76;97238.06;4932040;29;20043;-77
2022/01/03 10:15:32;;;;;;;7.25;3.78;;;;;;;23.13;27.71;97240.97;4911598;29;20050;-78
2022/01/03 10:17:57;;;;;;;7.63;3.75;;;;;;;23.05;26.84;97238.31;4911086;29;20499;-76
2022/01/03 10:20:27;;;;;;;8.07;3.92;;;;;;;22.74;28.28;97231.16;4927716;29;20043;-76
2022/01/03 10:23:09;;;;;;;8.63;5.07;;;;;;;22.51;27.62;97233.81;4937254;29;20039;-76
2022/01/03 10:25:36;;;;;;;17.35;4.20;;;;;;;22.43;28.80;97225.63;4922492;29;20067;-77
2022/01/03 10:28:04;;;;;;;6.53;3.50;;;;;;;22.43;28.04;97226.50;4918171;29;20539;-77
2022/01/03 10:30:40;;;;;;;7.72;3.75;;;;;;;22.32;28.08;97228.75;4917952;29;20052;-77
2022/01/03 10:33:10;;;;;;;4.10;3.00;;;;;;;21.58;29.24;97219.88;4920772;29;20146;-77
2022/01/03 10:35:41;;;;;;;7.75;3.47;;;;;;;21.42;30.32;97235.34;4936911;29;20082;-78
2022/01/03 10:38:09;;;;;;;8.27;4.35;;;;;;;21.17;31.13;97245.34;4905507;29;20051;-77
2022/01/03 10:40:35;;;;;;;7.95;5.50;;;;;;;20.99;31.71;97245.47;4923064;29;20567;-77
2022/01/03 10:43:19;;;;;;;16.60;5.18;;;;;;;21.06;31.11;97229.34;4918041;29;20027;-77
2022/01/03 10:45:45;;;;;;;14.23;6.65;;;;;;;20.99;31.23;97218.28;4933425;28;20043;-77
2022/01/03 10:48:34;;;;;;;22.95;9.35;;;;;;;21.10;31.70;97229.88;4911336;29;20039;-77
2022/01/03 10:51:01;;;;;;;27.73;7.63;;;;;;;21.01;32.19;97227.09;4949290;29;20487;-76
2022/01/03 10:53:33;;;;;;;12.30;6.40;;;;;;;20.65;32.28;97222.94;4918084;29;20038;-78
2022/01/03 10:55:59;;;;;;;10.73;5.85;;;;;;;20.32;32.36;97218.41;4925355;29;20043;-81
2022/01/03 10:58:32;;;;;;;15.13;4.70;;;;;;;19.98;32.73;97213.81;4931163;29;20038;-82
2022/01/03 11:00:59;;;;;;;6.32;3.88;;;;;;;19.62;33.19;97206.81;4919242;29;20043;-77
2022/01/03 11:03:32;;;;;;;6.35;3.67;;;;;;;19.45;33.44;97199.56;4919680;29;20118;-90
2022/01/03 11:06:21;;;;;;;35.13;6.53;;;;;;;19.37;33.70;97199.47;4914906;29;20045;-88
2022/01/03 11:11:41;;;;;;;19.35;9.52;;;;;;;20.10;34.24;97203.50;4948697;29;20158;-86
2022/01/03 11:14:09;;;;;;;15.57;8.85;;;;;;;21.70;31.79;97189.56;4926029;29;20043;-80
2022/01/03 11:16:40;;;;;;;27.35;11.60;;;;;;;24.32;29.09;97188.38;4921616;29;20039;-83
2022/01/03 11:19:06;;;;;;;26.10;13.32;;;;;;;26.50;25.85;97185.69;4918202;29;20842;-81
2022/01/03 11:21:33;;;;;;;22.25;11.75;;;;;;;28.28;23.25;97157.47;4908774;29;20032;-87
2022/01/03 11:23:59;;;;;;;17.70;11.88;;;;;;;30.12;20.90;97156.41;4923538;29;20420;-85
2022/01/03 11:26:25;;;;;;;20.65;11.63;;;;;;;31.28;20.56;97137.81;4920411;29;20046;-80
2022/01/03 11:28:51;;;;;;;11.15;6.25;;;;;;;30.79;20.03;97147.19;4930674;29;20446;-81
2022/01/03 11:31:19;;;;;;;19.63;9.10;;;;;;;29.94;20.51;97137.91;4927805;29;20614;-86
2022/01/03 11:33:46;;;;;;;13.35;9.63;;;;;;;29.63;20.97;97126.91;4923246;29;20506;-89
2022/01/03 11:36:12;;;;;;;23.33;13.65;;;;;;;28.77;21.43;97120.25;4917862;29;20043;-88
2022/01/03 11:38:40;;;;;;;13.82;9.32;;;;;;;28.60;21.51;97119.03;4912026;29;20078;-85